Terminal Aerodrome Forecast
Issued by NWS

Home | Current Version | Previous Version | Graphics & Text | Print | Product List | Glossary On
Versions: 1 2 3 4 5 6 7 8 9 10 11 12 13 14 15 16
000
FTUS43 KGRB 252300 RRA
TAFMTW
TAF
KMTW 252341Z 2600/2624 26018G28KT P6SM BKN040
     FM260100 26013G20KT P6SM BKN040
     FM260400 27010KT P6SM SCT035 SCT200
     FM261100 29009KT P6SM BKN030
     FM261500 32013G18KT P6SM BKN030=

USA.gov is the U.S. government's official web portal to all federal, state and local government web resources and services.